Tiempo atmosférico en la estación meteorológica de Palacios De La Sierra, Burgos (1080 m.)



Fecha
DESCASC
Temp. máxima en grados centígrados (hora)
DESCASC
Temp. mínima en grados centígrados (hora)
DESCASC
Temp. media en grados centígrados
DESCASC
Racha de viento máxima en m/sg (hora)
DESCASC
Velocidad máxima media en intervalos de 10 minutos(hora)
DESCASC
Precipitaciones diarias en mm
DESCASC
Precipitaciones de 00:00 a 06:00 en mm
DESCASC
Precipitaciones de 06:00 a 12:00 en mm
DESCASC
Precipitaciones de 12:00 a 18:00 en mm
DESCASC
Precipitaciones de 18:00 a 24:00 en mm
DESCASC
24-09-2020 17.5 (16:40) 11.1 (23:50) 14.3 -- (--) -- (--) 0.2 0.2 0 0 0
23-09-2020 18.9 (18:10) 8.4 (00:00) 13.6 10.28 (14:10) 4.72 (15:00) 1.4 0 0 0.2 1.2
22-09-2020 20.7 (17:10) 6.3 (00:00) 13.5 7.78 (17:30) 3.89 (20:50) 0 0 0 0 0
21-09-2020 20.8 (16:10) 10.3 (00:00) 15.5 6.94 (16:10) 3.33 (16:20) 0.2 0.2 0 0 0
20-09-2020 19.1 (16:20) 11.6 (00:00) 15.4 8.61 (01:20) 5 (01:40) 9.4 0 5.8 2.4 1.2
19-09-2020 15.9 (17:20) 11.6 (00:00) 13.8 14.72 (12:30) 5.28 (12:30) 18.2 6 2.8 6 3.4
18-09-2020 20.9 (17:30) 12.5 (00:00) 16.7 10.83 (07:20) 5.56 (07:20) 27.4 27.4 0 0 0
17-09-2020 25 (17:10) 15 (00:00) 20 12.22 (23:40) 4.44 (19:20) 4.2 0 0 0 4.2
16-09-2020 28.5 (16:00) 10 (00:00) 19.3 8.61 (12:50) 3.89 (06:40) 0 0 0 0 0
15-09-2020 26.8 (16:30) 13.6 (00:00) 20.2 12.22 (01:50) 5.56 (01:50) 8.8 6.8 2 0 0
14-09-2020 27.3 (13:50) 14 (00:00) 20.6 10.56 (13:00) 5.28 (17:40) 0 0 0 0 0
13-09-2020 31.1 (16:10) 9.5 (00:00) 20.3 8.61 (14:00) 4.72 (10:30) 0 0 0 0 0
12-09-2020 29.8 (16:50) 5.3 (00:00) 17.5 8.33 (12:10) 4.72 (13:00) 0 0 0 0 0
11-09-2020 28.8 (17:20) 6.2 (00:00) 17.5 16.11 (16:20) 5 (18:10) 0 0 0 0 0
10-09-2020 27.4 (16:20) 7.5 (00:00) 17.4 -- (--) -- (--) 0 0 0 0 0
09-09-2020 27.7 (15:50) 5.7 (00:00) 16.7 8.89 (17:00) 3.89 (18:00) 0 0 0 0 0
08-09-2020 24.9 (17:40) 3.1 (00:00) 14 -- (--) -- (--) 0 0 0 0 0
07-09-2020 20.7 (17:00) 3.3 (06:40) 12 -- (--) -- (--) 0 0 0 0 0
06-09-2020 27.5 (15:10) 8.5 (00:00) 18 10.28 (17:30) 4.72 (17:10) 0 0 0 0 0
05-09-2020 31.2 (16:40) 8.9 (00:00) 20.1 10.28 (17:40) 5 (17:50) 0 0 0 0 0
04-09-2020 31.4 (17:10) 8.8 (00:00) 20.1 7.22 (15:30) 4.17 (15:30) 0 0 0 0 0
03-09-2020 30.4 (18:00) 3.9 (00:00) 17.1 7.22 (16:40) 3.33 (07:00) 0 0 0 0 0
02-09-2020 26.5 (17:40) 2.9 (00:00) 14.7 15.83 (08:10) 4.44 (19:10) 0 0 0 0 0
01-09-2020 25.4 (15:50) 6.7 (00:00) 16 8.89 (21:00) 4.17 (20:50) 0 0 0 0 0
31-08-2020 22.9 (16:50) 0.1 (00:00) 11.5 9.44 (16:30) 3.89 (16:30) 0 0 0 0 0
30-08-2020 16.8 (16:30) 6.2 (00:00) 11.5 10.83 (12:50) 6.39 (12:10) 0 0 0 0 0
29-08-2020 16.6 (12:20) 6.2 (00:00) 11.4 14.17 (18:50) 6.11 (18:50) 4 0 0 1.8 2.2
28-08-2020 26.3 (15:30) 11.6 (00:00) 18.9 13.06 (17:50) 6.11 (16:00) 0 0 0 0 0
27-08-2020 31.7 (16:40) 11.5 (00:00) 21.6 11.11 (14:50) 4.72 (14:50) 0 0 0 0 0
26-08-2020 33.2 (16:50) 10.6 (00:00) 21.9 10.28 (16:00) 4.72 (15:40) 0 0 0 0 0

Gráficas

Temp. máximas Temp. mínimas Temp. medias Precipitaciones Rachas de viento máximas Velocidades máximas media en intervalos de 10 minutos

Datos horarios

Fecha y hora oficial Temperatura (ºC) Velocidad del viento (km/h) Dirección del viento Racha (km/h) Dirección de racha Precipitación (mm) Presión (hPa) Tendencia (hPa) Humedad (%)
2020-09-24 23:00:00 12.4 -- -- -- -- 0 894.3 1.4 57
2020-09-24 22:00:00 13.1 -- -- -- -- 0 894.2 -- 53
2020-09-24 21:00:00 13.4 -- -- -- -- 0 893.3 -- 52
2020-09-24 20:00:00 14.3 20 Oeste 49 Oeste 0 892.9 -- 48
2020-09-24 19:00:00 15.2 -- -- -- -- 0 892.5 -- 48
2020-09-24 18:00:00 16.6 -- -- -- -- 0 892.4 -- 43
2020-09-24 17:00:00 16.8 -- -- -- -- 0 892.5 -- 46
2020-09-24 16:00:00 16.3 -- -- -- -- 0 892.7 -- 52
2020-09-24 15:00:00 15.3 18 Oeste 41 Noroeste 0 893 -- 62
2020-09-24 14:00:00 14.6 17 Oeste 38 Sudoeste 0 893.6 -- 67
2020-09-24 13:00:00 14.2 15 Oeste 32 Noroeste 0 893.4 -- 67
2020-09-24 12:00:00 14 15 Oeste 33 Oeste 0 893.6 -- 65
2020-09-24 11:00:00 13.9 15 Oeste 33 Oeste 0 893.3 -- 66
2020-09-24 10:00:00 12.2 13 Oeste 26 Oeste 0 893.1 -- 77
2020-09-24 09:00:00 12 8 Oeste 17 Sudoeste 0 893 -- 83
2020-09-24 08:00:00 12.1 9 Oeste 24 Sudoeste 0 893 -- 83
2020-09-24 07:00:00 12.2 6 Oeste 13 Oeste 0 892.7 -- 86
2020-09-24 06:00:00 12.1 4 Oeste 15 Oeste 0 893.2 -- 88
2020-09-24 05:00:00 12.7 8 Oeste 21 Oeste 0 893.6 -- 86
2020-09-24 04:00:00 12.8 13 Oeste 24 Oeste 0 893.8 -- 85
2020-09-24 03:00:00 13.3 11 Oeste 23 Oeste 0 893.8 -- 87
2020-09-24 02:00:00 13.4 12 Oeste 23 Sudoeste 0 893.6 -- 87
2020-09-24 01:00:00 13.7 17 Oeste 34 Oeste 0.2 893.7 -- 85
2020-09-24 00:00:00 14 16 Oeste 33 Sudoeste 1.2 893.7 -- 86
2020-09-23 23:00:00 14.4 14 Oeste 22 Oeste 0 893.8 -- 84
2020-09-23 22:00:00 15.1 13 Oeste 24 Oeste 0 893.4 -- 80
2020-09-23 21:00:00 15.8 10 Sudoeste 24 Oeste 0 892.7 -- 74
2020-09-23 20:00:00 16.8 13 Oeste 24 Oeste 0 892.2 -- 65
2020-09-23 19:00:00 17.8 8 Oeste 24 Oeste 0 891.8 -- 64
2020-09-23 18:00:00 18.8 8 Oeste 27 Oeste 0 891.9 -- 62
2020-09-23 17:00:00 17.5 14 Sudoeste 27 Sudoeste 0 892 -- 66
2020-09-23 16:00:00 16.4 9 Oeste 35 Noroeste 0 892.3 -- 75
2020-09-23 15:00:00 18 17 Sudoeste 37 Sudoeste 0 892.4 -- 63
2020-09-23 14:00:00 16.6 14 Oeste 35 Sudoeste 0 892.7 -- 71
2020-09-23 13:00:00 16 9 Sudoeste 25 Sudoeste 0.2 893 -- 78
2020-09-23 12:00:00 15 9 Sudoeste 22 Sudoeste 0 892.9 -- 80
2020-09-23 11:00:00 14.6 3 Sudoeste 11 Sur 0 892.6 -- 80
2020-09-23 10:00:00 12.2 3 Sur 8 Sur 0 892.6 -- 88
2020-09-23 09:00:00 10.8 2 Este 10 Sur 0 892.5 -- 90
2020-09-23 08:00:00 10.2 3 Sudeste 10 Sur 0 892.3 -- 90
2020-09-23 07:00:00 9.5 0 Calma 5 Este 0 892.5 -- 91
2020-09-23 06:00:00 9.6 3 Este 15 Sudeste 0 892.5 -- 91
2020-09-23 05:00:00 9.3 5 Sur 10 Sur 0 892.8 -- 88
2020-09-23 04:00:00 9.1 3 Sudeste 9 Sudeste 0 893.1 -- 90
2020-09-23 03:00:00 8.5 5 Sudeste 13 Sur 0 893.3 -- 90
2020-09-23 02:00:00 8.6 5 Sur 13 Sudeste 0 893.2 -- 90
2020-09-23 01:00:00 9 6 Sur 13 Sur 0 893.9 -- 89
2020-09-23 00:00:00 10.3 5 Sur 9 Sur 0 893.9 -- 85
2020-09-22 23:00:00 11.3 4 Sur 10 Sur 0 893.9 -- 82
2020-09-22 22:00:00 12.7 2 Norte 18 Oeste 0 893.7 -- 74
2020-09-22 21:00:00 15.1 14 Oeste 21 Oeste 0 893.4 -- 61
2020-09-22 20:00:00 16.2 10 Oeste 20 Sudoeste 0 893.1 -- 57
2020-09-22 19:00:00 18.1 9 Oeste 23 Sudoeste 0 892.8 -- 48
2020-09-22 18:00:00 18.6 12 Oeste 28 Sudoeste 0 893 -- 44
2020-09-22 17:00:00 20.3 9 Sudoeste 27 Sudoeste 0 893.4 -- 38
2020-09-22 16:00:00 19.7 12 Oeste 28 Oeste 0 894.1 -- 40
2020-09-22 15:00:00 18.6 9 Oeste 27 Noroeste 0 894.5 -- 45
2020-09-22 14:00:00 18.9 7 Sudoeste 19 Oeste 0 894.8 -- 44
2020-09-22 13:00:00 17 7 Este 14 Oeste 0 895.3 -- 55
2020-09-22 12:00:00 15.9 4 Sudeste 11 Sudeste 0 895.7 -- 64
2020-09-22 11:00:00 14 3 Sur 8 Sur 0 895.6 -- 77
2020-09-22 10:00:00 11.5 3 Este 15 Sur 0 895.5 -- 84
2020-09-22 09:00:00 7.5 10 Sur 15 Sur 0 895.4 -- 91
2020-09-22 08:00:00 6.5 7 Sur 15 Sur 0 895.4 -- 92
2020-09-22 07:00:00 6.3 5 Sur 10 Sur 0 895.3 -- 91
2020-09-22 06:00:00 7.2 6 Sur 12 Sur 0 895.3 -- 91
2020-09-22 05:00:00 7.9 6 Sur 13 Sur 0 895.6 -- 91
2020-09-22 04:00:00 8.1 4 Sudeste 10 Sur 0 896 -- 90
2020-09-22 03:00:00 8.6 3 Oeste 11 Sur 0 896.1 -- 90
2020-09-22 02:00:00 9 0 Calma 9 Este 0 896.7 -- 90
2020-09-22 01:00:00 9.6 4 Sur 15 Sur 0 896.9 -- 90
2020-09-22 00:00:00 10.5 2 Este 12 Sur 0 897 -- 88
2020-09-21 23:00:00 10.8 9 Sur 13 Sur 0 897.1 -- 87
2020-09-21 22:00:00 11.9 10 Sur 13 Sur 0 896.8 -- 82
2020-09-21 21:00:00 13.4 8 Sur 11 Sur 0 896.4 -- 76
2020-09-21 20:00:00 16.2 4 Oeste 10 Noroeste 0 896.3 -- 59
2020-09-21 19:00:00 19 4 Noroeste 17 Noroeste 0 896.2 -- 49
2020-09-21 18:00:00 18.5 9 Norte 21 Norte 0 896.4 -- 53
2020-09-21 17:00:00 19.6 10 Noroeste 25 Oeste 0 896.4 -- 48
2020-09-21 16:00:00 20.4 9 Noroeste 24 Noroeste 0 896.6 -- 46
2020-09-21 15:00:00 19 11 Noroeste 23 Oeste 0 897.1 -- 54
2020-09-21 14:00:00 18.2 10 Noroeste 21 Oeste 0 897.5 -- 59
2020-09-21 13:00:00 16.4 9 Oeste 16 Oeste 0 897.8 -- 66
2020-09-21 12:00:00 14.3 4 Norte 10 Norte 0 898 -- 76
2020-09-21 11:00:00 12.4 3 Oeste 12 Noroeste 0 897.9 -- 87
2020-09-21 10:00:00 11.4 7 Noroeste 12 Noroeste 0 897.6 -- 92
2020-09-21 09:00:00 11.2 4 Sudoeste 10 Oeste 0 897.3 -- 92
2020-09-21 08:00:00 11.4 5 Noroeste 9 Noroeste 0 896.9 -- 93
2020-09-21 07:00:00 11.5 3 Noroeste 6 Oeste 0 896.5 -- 93
2020-09-21 06:00:00 11.3 0 Calma 4 Norte 0 896.5 -- 93
2020-09-21 05:00:00 11.1 4 Nordeste 9 Este 0 896.6 -- 93
2020-09-21 04:00:00 11.3 5 Sudeste 10 Sur 0 896.5 -- 93
2020-09-21 03:00:00 11.5 5 Este 9 Este 0 896.9 -- 92
2020-09-21 02:00:00 11.9 3 Sudeste 7 Sudeste 0 897 -- 93
2020-09-21 01:00:00 11.9 3 Sudeste 10 Sur 0.2 896.9 -- 93
2020-09-21 00:00:00 11.7 8 Sur 11 Sur 0 897.2 -- 93
2020-09-20 23:00:00 11.7 4 Sur 10 Sur 0 897.2 -- 92
2020-09-20 22:00:00 11.9 6 Sur 12 Sur 0 897 -- 92
2020-09-20 21:00:00 12.7 3 Sudoeste 8 Sur 0.2 896.6 -- 89
2020-09-20 20:00:00 14.2 6 Sur 15 Oeste 0 895.8 -- 85
2020-09-20 19:00:00 14.7 6 Noroeste 24 Noroeste 1 895.8 -- 87
2020-09-20 18:00:00 15.5 9 Noroeste 17 Oeste 0.8 895.6 -- 83
2020-09-20 17:00:00 17.9 9 Norte 27 Oeste 0 895.4 -- 73
2020-09-20 16:00:00 17.9 11 Sudoeste 23 Oeste 0.6 895.6 -- 71
2020-09-20 15:00:00 15.7 8 Oeste 24 Oeste 0.2 896 -- 85
2020-09-20 14:00:00 15.3 9 Sudoeste 26 Oeste 0.2 896.2 -- 82
2020-09-20 13:00:00 15.4 12 Oeste 23 Sudoeste 0.6 896.3 -- 85
2020-09-20 12:00:00 14.5 3 Norte 9 Norte 2.4 896.5 -- 89
2020-09-20 11:00:00 14.1 6 Oeste 11 Sudoeste 0 896.4 -- 87
2020-09-20 10:00:00 13.4 4 Sudoeste 12 Oeste 0 896.1 -- 90
2020-09-20 09:00:00 12.3 4 Este 8 Este 1.8 896 -- 93
2020-09-20 08:00:00 12.2 4 Sur 7 Sur 1 895.7 -- 92
2020-09-20 07:00:00 12.3 2 Sur 5 Sur 0.6 895.7 -- 92
2020-09-20 06:00:00 12.4 2 Sudeste 6 Nordeste 0 895.8 -- 91
2020-09-20 05:00:00 12.4 4 Sudeste 16 Oeste 0 895.8 -- 89
2020-09-20 04:00:00 12.4 8 Oeste 18 Sudoeste 0 896.2 -- 89
2020-09-20 03:00:00 12.4 10 Oeste 23 Oeste 0 896.3 -- 86
2020-09-20 02:00:00 12.6 15 Oeste 31 Oeste 0 896.2 -- 87
2020-09-20 01:00:00 12.6 9 Oeste 27 Oeste 0 896.3 -- 89
2020-09-20 00:00:00 12.8 12 Oeste 24 Oeste 0 896.2 -- 88
2020-09-19 23:00:00 12.5 2 Noroeste 18 Sudoeste 0.4 896.2 -- 90
2020-09-19 22:00:00 12.6 9 Oeste 14 Oeste 1.4 896 -- 87
2020-09-19 21:00:00 12.9 3 Noroeste 36 Sudoeste 1.6 895.3 -- 88
2020-09-19 20:00:00 14.5 11 Oeste 20 Sudoeste 0 894.5 -- 77
2020-09-19 19:00:00 14.9 9 Oeste 27 Sudoeste 0 894.2 -- 78
2020-09-19 18:00:00 14.9 13 Oeste 27 Oeste 0 893.8 -- 78
2020-09-19 17:00:00 14.9 15 Oeste 34 Sudoeste 0 893.8 -- 79
2020-09-19 16:00:00 13.6 12 Oeste 26 Sudoeste 0 893.7 -- 86
2020-09-19 15:00:00 13.6 11 Oeste 39 Sudoeste 0.8 893.5 -- 89
2020-09-19 14:00:00 13.7 18 Oeste 50 Oeste 4.6 893.1 -- 87
2020-09-19 13:00:00 13.8 13 Sudoeste 53 Oeste 0.6 892.8 -- 83
2020-09-19 12:00:00 13.6 12 Oeste 33 Oeste 0.4 893 -- 84
2020-09-19 11:00:00 13 3 Sudeste 17 Sudeste 1.2 892.8 -- 89
2020-09-19 10:00:00 12.5 7 Sudeste 15 Este 0.6 892.4 -- 89
2020-09-19 09:00:00 11.9 8 Sudeste 15 Sudeste 0.6 892.4 -- 89
2020-09-19 08:00:00 11.6 0 Calma 12 Sudeste 0 892.2 -- 88
2020-09-19 07:00:00 11.7 5 Sudeste 10 Sudeste 0 891.9 -- 88
2020-09-19 06:00:00 11.6 7 Sudeste 10 Sudeste 0.2 891.9 -- 90
2020-09-19 05:00:00 11.7 4 Sur 19 Este 0.6 891.9 -- 89
2020-09-19 04:00:00 11.9 8 Este 17 Este 3.6 892 -- 88
2020-09-19 03:00:00 12.1 2 Sudoeste 8 Sudeste 1.4 892.7 -- 90
2020-09-19 02:00:00 12.1 3 Sudeste 17 Sudeste 0.2 892.7 -- 87
2020-09-19 01:00:00 12.5 4 Sudeste 12 Sudeste 0 893 -- 82
2020-09-19 00:00:00 12.7 8 Sudeste 18 Sudeste 0 893.2 -- 77
2020-09-18 23:00:00 12.8 9 Sudeste 19 Sudeste 0 893.4 -- 77
2020-09-18 22:00:00 14 5 Sudeste 18 Este 0 893.1 -- 73
2020-09-18 21:00:00 15.4 9 Sur 32 Sudeste 0 892.5 -- 68
2020-09-18 20:00:00 17.1 7 Sudeste 27 Sudeste 0 892.4 -- 61
2020-09-18 19:00:00 18.2 13 Sudeste 31 Sudeste 0 892.3 -- 55
2020-09-18 18:00:00 19.3 11 Sudeste 31 Sudeste 0 891.9 -- 51
2020-09-18 17:00:00 20.6 12 Sudeste 37 Sudeste 0 891.6 -- 48
2020-09-18 16:00:00 19.3 13 Sudeste 32 Sur 0 892.4 -- 56
2020-09-18 15:00:00 19 11 Sudeste 37 Sudeste 0 892.8 -- 56
2020-09-18 14:00:00 19.2 13 Sudeste 35 Sudeste 0 892.6 -- 55
2020-09-18 13:00:00 14.9 3 Oeste 21 Noroeste 0 893.5 -- 73
2020-09-18 12:00:00 13.8 16 Noroeste 33 Oeste 0 894 -- 77
2020-09-18 11:00:00 15.2 14 Sudeste 32 Sudeste 0 893.4 -- 79
2020-09-18 10:00:00 13.1 15 Este 19 Este 0 892.9 -- 87
2020-09-18 09:00:00 12.5 9 Este 28 Oeste 0 892.5 -- 87
2020-09-18 08:00:00 13.3 13 Oeste 39 Este 0 892.4 -- 78
2020-09-18 07:00:00 15.5 13 Sudeste 30 Sudeste 0 891.4 -- 84
2020-09-18 06:00:00 15.1 13 Sudeste 32 Sudeste 0.4 891.8 -- 88
2020-09-18 05:00:00 14 12 Este 24 Este 11.6 892 -- 92
2020-09-18 04:00:00 14.3 9 Sudeste 19 Este 4.8 893.2 -- 91
2020-09-18 03:00:00 14.2 9 Sudeste 18 Este 0.8 893.9 -- 90
2020-09-18 02:00:00 14 4 Sudeste 24 Sudeste 5.6 894.5 -- 89
2020-09-18 01:00:00 14.7 15 Sudeste 30 Sudeste 4.2 895.1 -- 86
2020-09-18 00:00:00 16 4 Sudeste 44 Oeste 4.2 893.8 -- 83
2020-09-17 23:00:00 19.5 11 Este 25 Este 0 894 -- 60
2020-09-17 22:00:00 19.5 8 Sudeste 20 Sudeste 0 894 -- 59
2020-09-17 21:00:00 20.3 10 Este 28 Sudeste 0 893.6 -- 55
2020-09-17 20:00:00 21.7 15 Sudeste 32 Sudeste 0 893.1 -- 49
2020-09-17 19:00:00 23.3 16 Sudeste 36 Sudeste 0 893.2 -- 39
2020-09-17 18:00:00 23.9 13 Sudeste 33 Sur 0 893.1 -- 36
2020-09-17 17:00:00 24.8 10 Sudeste 36 Sudeste 0 893.5 -- 38
2020-09-17 16:00:00 23.4 14 Sudeste 38 Sudeste 0 893.9 -- 41
2020-09-17 15:00:00 23.8 14 Sudeste 30 Sudeste 0 894.4 -- 41
2020-09-17 14:00:00 22.7 9 Sudeste 24 Sudeste 0 894.7 -- 46
2020-09-17 13:00:00 22.4 13 Sudeste 25 Sur 0 895.1 -- 48
2020-09-17 12:00:00 20.3 10 Sudeste 25 Sur 0 896 -- 56
2020-09-17 11:00:00 20 10 Sudeste 27 Sudeste 0 896 -- 55
2020-09-17 10:00:00 19.4 8 Sudeste 22 Sudeste 0 896 -- 57
2020-09-17 09:00:00 17.7 9 Este 22 Este 0 895.8 -- 63
2020-09-17 08:00:00 17.3 9 Sudeste 24 Sudeste 0 895.9 -- 63
2020-09-17 07:00:00 16.2 8 Sudeste 13 Sudeste 0 895.6 -- 72
2020-09-17 06:00:00 15.1 2 Sudeste 11 Sur 0 896 -- 79
2020-09-17 05:00:00 15.5 2 Sudeste 10 Este 0 896 -- 79
2020-09-17 04:00:00 16.2 8 Este 18 Este 0 896.4 -- 77
2020-09-17 03:00:00 17.2 7 Sudeste 28 Este 0 897.2 -- 69
2020-09-17 02:00:00 18.5 14 Este 32 Este 0 897.3 -- 65
2020-09-17 01:00:00 18.1 2 Sudeste 6 Sudeste 0 897.7 -- 59
2020-09-17 00:00:00 19.3 3 Este 10 Este 0 897.6 -- 53
2020-09-16 23:00:00 20.5 6 Este 17 Este 0 897.5 -- 50
2020-09-16 22:00:00 21.3 9 Sudeste 20 Este 0 897.5 -- 47
2020-09-16 21:00:00 22.4 6 Sudeste 19 Sudeste 0 897.1 -- 43
2020-09-16 20:00:00 23.9 8 Sudeste 13 Este 0 896.6 -- 34
2020-09-16 19:00:00 25.5 5 Sur 14 Sudeste 0 896.8 -- 33
2020-09-16 18:00:00 26.7 6 Sur 15 Sudeste 0 896.8 -- 26
2020-09-16 17:00:00 27.3 6 Sur 24 Sudeste 0 897.3 -- 22
2020-09-16 16:00:00 27.9 8 Sur 24 Este 0 897.9 -- 22
2020-09-16 15:00:00 26.9 4 Nordeste 19 Sudeste 0 898.4 -- 28
2020-09-16 14:00:00 26 4 Sur 20 Sudeste 0 899.1 -- 31
2020-09-16 13:00:00 25.9 8 Sur 31 Este 0 899.6 -- 30
2020-09-16 12:00:00 24.2 3 Nordeste 8 Nordeste 0 900 -- 40
2020-09-16 11:00:00 20.5 2 Este 5 Este 0 900.3 -- 55
2020-09-16 10:00:00 15.5 0 Calma 13 Sudeste 0 900.4 -- 73
2020-09-16 09:00:00 11.1 8 Sur 18 Sur 0 900.2 -- 85
2020-09-16 08:00:00 10.4 12 Sur 16 Sur 0 900 -- 88
2020-09-16 07:00:00 10.6 9 Sur 19 Sur 0 900 -- 88
2020-09-16 06:00:00 11.1 5 Sudeste 12 Sur 0 900.1 -- 88
2020-09-16 05:00:00 11 6 Sudeste 16 Sur 0 900.4 -- 89
2020-09-16 04:00:00 11.4 7 Sur 14 Sur 0 900.4 -- 88
2020-09-16 03:00:00 11.7 8 Sur 15 Sur 0 900.5 -- 86
2020-09-16 02:00:00 12 6 Sur 17 Sur 0 900.7 -- 86
2020-09-16 01:00:00 13 5 Sur 11 Sur 0 900.7 -- 84
2020-09-16 00:00:00 13.6 5 Sur 13 Sur 0 900.5 -- 82
2020-09-15 23:00:00 15.1 6 Sur 11 Sur 0 900.5 -- 76
2020-09-15 22:00:00 16 0 Calma 8 Sur 0 900.3 -- 71
2020-09-15 21:00:00 18.6 3 Sudeste 12 Sur 0 899.8 -- 62
2020-09-15 20:00:00 21.6 10 Sudoeste 21 Oeste 0 899.5 -- 48
2020-09-15 19:00:00 25.1 7 Oeste 15 Oeste 0 899.4 -- 37
2020-09-15 18:00:00 24.8 3 Noroeste 19 Oeste 0 899.5 -- 33
2020-09-15 17:00:00 26.6 8 Oeste 23 Sudoeste 0 899.6 -- 30
2020-09-15 16:00:00 25.9 8 Oeste 22 Oeste 0 900 -- 33
2020-09-15 15:00:00 25 8 Sudoeste 24 Sur 0 900.3 -- 36
2020-09-15 14:00:00 24.3 6 Sur 22 Sudoeste 0 900.6 -- 44
2020-09-15 13:00:00 23.2 6 Sur 16 Sudeste 0 901 -- 49
2020-09-15 12:00:00 20.6 9 Sudeste 27 Este 0 901.5 -- 58
2020-09-15 11:00:00 18.3 14 Este 29 Este 0 901.5 -- 68
2020-09-15 10:00:00 16.4 13 Sudeste 22 Sudeste 0 901.7 -- 77
2020-09-15 09:00:00 14.3 6 Sudeste 28 Este 1.4 901.2 -- 82
2020-09-15 08:00:00 13.8 4 Nordeste 19 Este 0.2 901.2 -- 87
2020-09-15 07:00:00 13.8 8 Este 16 Sudeste 0.4 900.7 -- 89
2020-09-15 06:00:00 13.8 4 Sur 21 Este 4.4 900.8 -- 87
2020-09-15 05:00:00 14.5 7 Este 30 Oeste 2.4 901.5 -- 83
2020-09-15 04:00:00 15.9 3 Sudoeste 20 Oeste 0 900.6 -- 65
2020-09-15 03:00:00 16.1 6 Sudoeste 27 Norte 0 901.3 -- 62
2020-09-15 02:00:00 18.1 18 Noroeste 44 Oeste 0 901.4 -- 53
2020-09-15 01:00:00 17.8 5 Este 8 Este 0 900.4 -- 50
2020-09-15 00:00:00 18.9 4 Este 15 Sudeste 0 900.1 -- 47
2020-09-14 23:00:00 19.2 9 Este 15 Este 0 900.2 -- 47
2020-09-14 22:00:00 18.9 6 Este 16 Sudeste 0 900.2 -- 49
2020-09-14 21:00:00 21 5 Sudeste 19 Sudeste 0 900 -- 40
2020-09-14 20:00:00 23.3 11 Sudeste 28 Sudeste 0 899.8 -- 32
2020-09-14 19:00:00 24.3 -- -- -- -- 0 899.3 -- 30
2020-09-14 18:00:00 25.7 14 Sudeste 36 Este 0 900.1 -- 28
2020-09-14 17:00:00 26.1 12 Sudeste 25 Sudeste 0 900.1 -- 27
2020-09-14 16:00:00 25.3 7 Sudeste 29 Sudeste 0 900.7 -- 27
2020-09-14 15:00:00 25.9 14 Sudeste 36 Sudeste 0 901.1 -- 25
2020-09-14 14:00:00 27.1 16 Sudeste 36 Sudeste 0 901.3 -- 24
2020-09-14 13:00:00 26.3 15 Sudeste 38 Este 0 901.5 -- 25
2020-09-14 12:00:00 24.8 14 Sudeste 33 Sudeste 0 902 -- 29
2020-09-14 11:00:00 22.4 17 Sudeste 27 Este 0 902.4 -- 37
2020-09-14 10:00:00 20 12 Este 21 Nordeste 0 902.3 -- 47
2020-09-14 09:00:00 17.5 8 Sudeste 17 Sudeste 0 902.1 -- 56
2020-09-14 08:00:00 15.7 10 Sudeste 19 Sudeste 0 901.9 -- 60
2020-09-14 07:00:00 15.7 12 Este 18 Este 0 901.5 -- 57
2020-09-14 06:00:00 16 6 Sudeste 14 Sudeste 0 901.7 -- 53
2020-09-14 05:00:00 16.6 8 Sudeste 19 Este 0 901.9 -- 48
2020-09-14 04:00:00 17.1 14 Este 21 Este 0 902.1 -- 45
2020-09-14 03:00:00 16.2 4 Sudeste 12 Sudoeste 0 902.5 -- 46
2020-09-14 02:00:00 14.9 0 Calma 5 Este 0 902.4 -- 51
2020-09-14 01:00:00 15.2 2 Este 16 Sudeste 0 902.3 -- 50
2020-09-14 00:00:00 16.5 9 Sudeste 18 Sur 0 902.3 -- 47
2020-09-13 23:00:00 17.6 5 Sur 10 Sur 0 902.3 -- 45
2020-09-13 22:00:00 19.3 3 Sudeste 7 Sudeste 0 902 -- 40
2020-09-13 21:00:00 22.4 0 Calma 19 Sur 0 901.4 -- 31
2020-09-13 20:00:00 26.2 3 Sudeste 26 Sudoeste 0 900.9 -- 24
2020-09-13 19:00:00 28.8 8 Sudoeste 24 Sur 0 900.4 -- 20
2020-09-13 18:00:00 29.8 7 Sudoeste 17 Sudoeste 0 900.4 -- 19
2020-09-13 17:00:00 30.4 13 Sudoeste 29 Sudoeste 0 900.6 -- 17
2020-09-13 16:00:00 30.7 6 Oeste 30 Sudoeste 0 900.9 -- 17
2020-09-13 15:00:00 30.3 8 Sur 26 Sur 0 901.3 -- 18
2020-09-13 14:00:00 29.2 15 Sudeste 31 Este 0 901.8 -- 19
2020-09-13 13:00:00 28.2 6 Sudeste 22 Este 0 902.2 -- 26
2020-09-13 12:00:00 25.5 10 Este 25 Este 0 902.7 -- 32
2020-09-13 11:00:00 23.1 16 Este 27 Este 0 902.7 -- 38
2020-09-13 10:00:00 20.7 11 Este 19 Este 0 902.3 -- 46
2020-09-13 09:00:00 16 10 Este 15 Este 0 902 -- 56
2020-09-13 08:00:00 14.8 11 Este 17 Este 0 901.6 -- 57
2020-09-13 07:00:00 10.9 2 Sur 8 Sur 0 901.3 -- 66
2020-09-13 06:00:00 11.8 5 Sudeste 15 Sudeste 0 901.2 -- 60
2020-09-13 05:00:00 10.7 4 Sudeste 10 Sur 0 901.2 -- 62
2020-09-13 04:00:00 10.8 3 Sudeste 10 Sur 0 901.3 -- 61
2020-09-13 03:00:00 9.5 3 Este 6 Este 0 901.5 -- 64
2020-09-13 02:00:00 10.2 0 Calma 4 Este 0 901.7 -- 60
2020-09-13 01:00:00 9.9 0 Calma 9 Sur 0 901.6 -- 62
2020-09-13 00:00:00 11.6 3 Sur 7 Sudeste 0 901.3 -- 56
2020-09-12 23:00:00 13.8 2 Oeste 16 Sur 0 901 -- 47
2020-09-12 22:00:00 18.7 10 Sur 16 Sur 0 900.5 -- 33
2020-09-12 21:00:00 20 10 Sur 21 Sudeste 0 899.7 -- 28
2020-09-12 20:00:00 23.7 9 Sudeste 22 Este 0 898.9 -- 21
2020-09-12 19:00:00 27.2 13 Este 21 Este 0 898.6 -- 13
2020-09-12 18:00:00 29.4 5 Oeste 19 Noroeste 0 898.5 -- 10
2020-09-12 17:00:00 29.6 7 Sudoeste 15 Oeste 0 898.6 -- 9
2020-09-12 16:00:00 28.7 4 Este 21 Este 0 898.8 -- 9
2020-09-12 15:00:00 27.9 9 Sudeste 29 Este 0 899 -- 9
2020-09-12 14:00:00 27.4 9 Este 25 Este 0 899.3 -- 10
2020-09-12 13:00:00 26.7 17 Este 30 Este 0 899.5 -- 10
2020-09-12 12:00:00 25.4 14 Este 27 Este 0 899.5 -- 11
2020-09-12 11:00:00 20 3 Noroeste 8 Este 0 899.3 -- 34
2020-09-12 10:00:00 13.1 3 Sudeste 13 Sur 0 899 -- 45
2020-09-12 09:00:00 7.8 3 Sudeste 10 Sudeste 0 899.1 -- 59
2020-09-12 08:00:00 5.6 5 Sudeste 13 Sudeste 0 898.6 -- 68
2020-09-12 07:00:00 5.9 4 Sudeste 12 Sur 0 898.1 -- 70
2020-09-12 06:00:00 6.5 6 Sur 12 Sur 0 897.9 -- 70
2020-09-12 05:00:00 6.2 4 Sur 15 Este 0 897.8 -- 72
2020-09-12 04:00:00 7.6 4 Sudeste 12 Sur 0 897.7 -- 70
2020-09-12 03:00:00 7.1 5 Sudeste 11 Sur 0 897.8 -- 74
2020-09-12 02:00:00 7.1 2 Este 4 Este 0 897.3 -- 78
2020-09-12 01:00:00 8.6 0 Calma 5 Norte 0 897.5 -- 76
2020-09-12 00:00:00 11.1 3 Noroeste 11 Sur 0 897.1 -- 68
2020-09-11 23:00:00 13.9 3 Oeste 14 Sudeste 0 896.9 -- 56
2020-09-11 22:00:00 17.7 9 Sur 14 Sur 0 896.4 -- 44
2020-09-11 21:00:00 19.9 6 Sur 13 Oeste 0 895.8 -- 35
2020-09-11 20:00:00 24 7 Noroeste 25 Noroeste 0 895.3 -- 28
2020-09-11 19:00:00 26.1 15 Noroeste 32 Noroeste 0 894.9 -- 24
2020-09-11 18:00:00 28 17 Oeste 37 Oeste 0 894.7 -- 22
2020-09-11 17:00:00 28.3 15 Noroeste 58 Sudoeste 0 895 -- 17
2020-09-11 16:00:00 28 14 Oeste 31 Oeste 0 895.3 -- 17
2020-09-11 15:00:00 27.6 10 Noroeste 25 Noroeste 0 895.6 -- 18
2020-09-11 14:00:00 26.3 8 Noroeste 21 Noroeste 0 895.9 -- 25
2020-09-11 13:00:00 24.6 6 Oeste 23 Oeste 0 896.4 -- 27
2020-09-11 12:00:00 22.6 14 Noroeste 22 Oeste 0 896.7 -- 30
2020-09-11 11:00:00 19.2 4 Noroeste 10 Noroeste 0 896.9 -- 45
2020-09-11 10:00:00 13.7 2 Norte 7 Sudeste 0 896.8 -- 61
2020-09-11 09:00:00 8.9 3 Sudeste 13 Sur 0 896.8 -- 75
2020-09-11 08:00:00 6.7 5 Sudeste 12 Sudoeste 0 896.6 -- 82
2020-09-11 07:00:00 6.6 4 Sur 13 Sur 0 896.7 -- 82
2020-09-11 06:00:00 6.7 3 Sudeste 10 Sudeste 0 896.7 -- 85
2020-09-11 05:00:00 6.8 2 Este 13 Sur 0 897 -- 82
2020-09-11 04:00:00 6.9 2 Norte 4 Noroeste 0 897.1 -- 82
2020-09-11 03:00:00 7.8 0 Calma 5 Norte 0 897.1 -- 81
2020-09-11 02:00:00 9.1 0 Calma 6 Este 0 897.5 -- 75
2020-09-11 01:00:00 9.5 5 Oeste 10 Sur 0 897.9 -- 75
2020-09-11 00:00:00 12.8 7 Sur 12 Sur 0 897.9 -- 60
2020-09-10 23:00:00 15.2 8 Sur 12 Sur 0 897.9 -- 51
2020-09-10 22:00:00 16.8 9 Sur 12 Sur 0 897.8 -- 47
2020-09-10 21:00:00 18.3 8 Sur 13 Este 0 897.5 -- 42
2020-09-10 20:00:00 22.3 8 Nordeste 31 Nordeste 0 897.4 -- 31
2020-09-10 19:00:00 24 14 Nordeste 28 Nordeste 0 897.2 -- 27
2020-09-10 18:00:00 25.5 13 Nordeste 25 Noroeste 0 897.3 -- 24
2020-09-10 17:00:00 26.4 6 Este 29 Este 0 897.7 -- 24
2020-09-10 16:00:00 26.4 5 Noroeste 30 Nordeste 0 898.1 -- 25
2020-09-10 15:00:00 24.9 8 Nordeste 31 Nordeste 0 898.7 -- 27
2020-09-10 14:00:00 25.5 8 Nordeste 20 Noroeste 0 899.2 -- 25
2020-09-10 13:00:00 23.9 8 Norte 25 Norte 0 899.8 -- 32
2020-09-10 12:00:00 23.4 11 Este 24 Este 0 900.2 -- 34
2020-09-10 11:00:00 21.6 17 Este 30 Este 0 900.4 -- 39
2020-09-10 10:00:00 16.9 3 Norte 12 Sudeste 0 900.3 -- 60
2020-09-10 09:00:00 10.9 3 Oeste 10 Sur 0 899.9 -- 76
2020-09-10 08:00:00 7.7 3 Sur 8 Sudoeste 0 900 -- 86
2020-09-10 07:00:00 9.1 4 Este 17 Sur 0 899.9 -- 81
2020-09-10 06:00:00 10.7 6 Sudoeste 14 Sur 0 900 -- 74
2020-09-10 05:00:00 12.8 5 Oeste 35 Este 0 900.4 -- 67
2020-09-10 04:00:00 16 9 Este -- -- 0 900.3 -- 55
2020-09-10 03:00:00 16.9 18 Este -- -- 0 900.3 -- 52
2020-09-10 02:00:00 17 -- -- -- -- 0 900.6 -- 51
2020-09-10 01:00:00 17.2 -- -- -- -- 0 900.7 -- 53
2020-09-10 00:00:00 15.9 4 Sur 14 Sur 0 900.6 -- 55
2020-09-09 23:00:00 16.1 6 Sudoeste 14 Sur 0 900.6 -- 56
2020-09-09 22:00:00 16.8 5 Sudeste 13 Este 0 900.5 -- 52
2020-09-09 21:00:00 19.3 3 Sudeste 17 Norte 0 899.7 -- 37
2020-09-09 20:00:00 22.3 8 Nordeste 27 Nordeste 0 899.3 -- 29
2020-09-09 19:00:00 24.2 12 Nordeste 27 Nordeste 0 899 -- 25
2020-09-09 18:00:00 25.3 14 Nordeste 30 Noroeste 0 899 -- 23
2020-09-09 17:00:00 25.9 11 Noroeste 32 Noroeste 0 899.2 -- 24
2020-09-09 16:00:00 27.6 6 Oeste 30 Sudoeste 0 899.4 -- 21
2020-09-09 15:00:00 25.9 5 Sur 19 Noroeste 0 899.9 -- 22
2020-09-09 14:00:00 25.6 6 Oeste 21 Noroeste 0 900.4 -- 24
2020-09-09 13:00:00 24.4 10 Noroeste 17 Norte 0 901 -- 25
2020-09-09 12:00:00 22.4 3 Sudoeste 13 Nordeste 0 901.4 -- 30
2020-09-09 11:00:00 20.5 7 Este 16 Nordeste 0 901.9 -- 35
2020-09-09 10:00:00 15.3 4 Nordeste 12 Este 0 901.9 -- 49
2020-09-09 09:00:00 9.9 4 Sudeste 19 Este 0 901.7 -- 65
2020-09-09 08:00:00 5.8 0 Calma 5 Noroeste 0 901.6 -- 76
2020-09-09 07:00:00 7.1 3 Sudeste 6 Sudeste 0 901.1 -- 73
2020-09-09 06:00:00 7.2 0 Calma 6 Este 0 900.9 -- 70
2020-09-09 05:00:00 8.8 2 Sur 12 Este 0 900.6 -- 63
2020-09-09 04:00:00 9.1 9 Este 12 Este 0 901.3 -- 63
2020-09-09 03:00:00 9.1 2 Sudeste 8 Este 0 901.5 -- 62
2020-09-09 02:00:00 10.6 5 Sudeste 10 Sudeste 0 901.7 -- 57
2020-09-09 01:00:00 10.4 2 Noroeste 7 Sudoeste 0 902 -- 56
2020-09-09 00:00:00 12.4 0 Calma 9 Este 0 902 -- 49
2020-09-08 23:00:00 14.8 4 Este 16 Este 0 901.8 -- 41
2020-09-08 22:00:00 16 9 Este 18 Sudeste 0 901.6 -- 37
2020-09-08 21:00:00 17.9 8 Sur 19 Sudeste 0 900.9 -- 30
2020-09-08 20:00:00 21.6 10 Sudeste 22 Sudeste 0 900.6 -- 23
2020-09-08 19:00:00 23.6 9 Sudeste 23 Sudeste 0 900.4 -- 19
2020-09-08 18:00:00 24.2 10 Sudeste 24 Este 0 900.2 -- 19
2020-09-08 17:00:00 24.2 13 Este 29 Sur 0 900.3 -- 18
2020-09-08 16:00:00 23.8 13 Sudeste 38 Este 0 900.8 -- 20
2020-09-08 15:00:00 23.8 13 Sudeste 31 Este 0 901.2 -- 19
2020-09-08 14:00:00 22 12 Sudeste 30 Este 0 901.5 -- 22
2020-09-08 13:00:00 21.1 18 Este 36 Este 0 901.9 -- 24
2020-09-08 12:00:00 19.6 17 Este 32 Este 0 902.2 -- 30
2020-09-08 11:00:00 17.5 12 Este 24 Este 0 902.4 -- 40
2020-09-08 10:00:00 14 11 Este 17 Este 0 902.3 -- 49
2020-09-08 09:00:00 6.4 2 Noroeste 10 Sudeste 0 902.4 -- 77
2020-09-08 08:00:00 3.1 0 Calma 5 Sudeste 0 902.1 -- 86
2020-09-08 07:00:00 4.2 0 Calma 8 Norte 0 901.7 -- 83
2020-09-08 06:00:00 6.9 3 Sudoeste 17 Sudeste 0 901.3 -- 73
2020-09-08 05:00:00 8.8 11 Sur 24 Este 0 901.2 -- 67
2020-09-08 04:00:00 9.7 15 Sudeste 28 Este 0 900.8 -- 63
2020-09-08 03:00:00 9.6 8 Este 22 Este 0 901.6 -- 65
2020-09-08 02:00:00 10.3 -- -- -- -- 0 902 -- 63
2020-09-08 01:00:00 11.8 -- -- -- -- 0 901.2 -- 47
2020-09-08 00:00:00 11.5 -- -- -- -- 0 902 -- 53
2020-09-07 23:00:00 11.3 -- -- -- -- 0 901.5 -- 53
2020-09-07 22:00:00 12.3 -- -- -- -- 0 901 -- 47
2020-09-07 21:00:00 12.7 5 Nordeste -- -- 0 901.1 -- 48
2020-09-07 20:00:00 15.3 19 Este -- -- 0 900.5 -- 39
2020-09-07 19:00:00 17.3 26 Nordeste 44 Este 0 900 -- 33
2020-09-07 18:00:00 18.7 24 Este 48 Este 0 899.5 -- 30
2020-09-07 17:00:00 20.7 21 Este 43 Este 0 899.3 -- 24
2020-09-07 16:00:00 20.4 18 Sudeste 39 Sudeste 0 899.3 -- 25
2020-09-07 15:00:00 19.1 21 Nordeste 45 Este 0 899.7 -- 29
2020-09-07 14:00:00 17.8 25 Este 55 Este 0 900 -- 38
2020-09-07 13:00:00 16.5 29 Este 55 Este 0 900.1 -- 43
2020-09-07 12:00:00 16.2 26 Este 49 Este 0 900.2 -- 45
2020-09-07 11:00:00 15.8 3 Nordeste 24 Sudeste 0 899.9 -- 44
2020-09-07 10:00:00 13.6 2 Sudoeste 14 Norte 0 899.9 -- 51
2020-09-07 09:00:00 10.4 6 Norte 20 Este 0 899.4 -- 65
2020-09-07 08:00:00 7.2 5 Sudeste 14 Sur 0 899.1 -- 76
2020-09-07 07:00:00 7 5 Sudeste 19 Sudeste 0 898.6 -- 79
2020-09-07 06:00:00 3.7 3 Oeste 7 Noroeste 0 898.2 -- 88
2020-09-07 05:00:00 4.5 2 Sudoeste 5 Sudoeste 0 898.1 -- 87
2020-09-07 04:00:00 5.7 2 Oeste 6 Sur 0 898.3 -- 83
2020-09-07 03:00:00 7.5 3 Sudoeste 19 Sur 0 898.5 -- 74
2020-09-07 02:00:00 9.4 7 Sur 15 Sudeste 0 898.5 -- 70
2020-09-07 01:00:00 9 3 Nordeste 18 Sur 0 898.7 -- 70
2020-09-07 00:00:00 12 9 Sudeste 22 Sudeste 0 898.4 -- 61
2020-09-06 23:00:00 12 10 Sur 18 Sur 0 898 -- 58
2020-09-06 22:00:00 13.1 8 Sur 13 Sudeste 0 897.4 -- 60
2020-09-06 21:00:00 16.3 5 Sur 21 Este 0 897.2 -- 52
2020-09-06 20:00:00 22.2 5 Oeste 22 Noroeste 0 896.6 -- 33
2020-09-06 19:00:00 24.4 14 Oeste 30 Noroeste 0 896.4 -- 31
2020-09-06 18:00:00 26 13 Noroeste 37 Noroeste 0 896.5 -- 29
2020-09-06 17:00:00 26.6 13 Noroeste 34 Noroeste 0 896.5 -- 30
2020-09-06 16:00:00 26.9 15 Noroeste 35 Noroeste 0 896.7 -- 28
2020-09-06 15:00:00 27.1 12 Noroeste 27 Noroeste 0 896.9 -- 30
2020-09-06 14:00:00 26.2 7 Noroeste 19 Oeste 0 897.4 -- 31
2020-09-06 13:00:00 24.3 6 Noroeste 19 Oeste 0 898 -- 40
2020-09-06 12:00:00 22.5 10 Noroeste 16 Noroeste 0 898.2 -- 44
2020-09-06 11:00:00 19.7 7 Nordeste 14 Este 0 898.4 -- 49
2020-09-06 10:00:00 15.6 5 Sudeste 12 Este 0 898.3 -- 66
2020-09-06 09:00:00 9.5 2 Oeste 15 Noroeste 0 898.5 -- 86
2020-09-06 08:00:00 8.7 0 Calma 5 Sudeste 0 898.2 -- 86
2020-09-06 07:00:00 10.8 8 Sur 15 Sudeste 0 898 -- 81
2020-09-06 06:00:00 11.4 6 Sur 12 Sur 0 898.3 -- 81
2020-09-06 05:00:00 11.4 3 Noroeste 10 Sudeste 0 898.6 -- 78
2020-09-06 04:00:00 12.1 4 Sur 8 Sudeste 0 899 -- 80
2020-09-06 03:00:00 10.1 3 Norte 8 Sudeste 0 899.7 -- 84
2020-09-06 02:00:00 11.7 0 Calma 10 Oeste 0 899.3 -- 80
2020-09-06 01:00:00 14.7 5 Sur 13 Sudeste 0 899.2 -- 65
2020-09-06 00:00:00 16.6 3 Sudeste 18 Sudeste 0 899.2 -- 61
2020-09-05 23:00:00 17.5 6 Sur 12 Sudoeste 0 899.1 -- 57
2020-09-05 22:00:00 18.4 8 Sur 15 Sudeste 0 898.8 -- 57
2020-09-05 21:00:00 20.7 5 Sur 19 Sudeste 0 898.5 -- 48
2020-09-05 20:00:00 25.2 8 Sudeste 24 Oeste 0 898.3 -- 34
2020-09-05 19:00:00 27.9 10 Noroeste 29 Nordeste 0 898.2 -- 22
2020-09-05 18:00:00 29 11 Norte 37 Oeste 0 898.1 -- 23
2020-09-05 17:00:00 30.5 6 Noroeste 24 Oeste 0 898 -- 15
2020-09-05 16:00:00 30.5 6 Norte 27 Noroeste 0 898.7 -- 14
2020-09-05 15:00:00 30.4 6 Noroeste 15 Noroeste 0 899.4 -- 16
2020-09-05 14:00:00 28.3 5 Oeste 19 Noroeste 0 899.8 -- 22
2020-09-05 13:00:00 27.7 6 Este 14 Sudeste 0 900.3 -- 24
2020-09-05 12:00:00 26 6 Norte 14 Noroeste 0 900.7 -- 30
2020-09-05 11:00:00 22.6 4 Sudeste 11 Este 0 900.9 -- 38
2020-09-05 10:00:00 17.3 3 Norte 5 Norte 0 900.8 -- 57
2020-09-05 09:00:00 12.8 4 Sudeste 8 Sudeste 0 900.6 -- 68
2020-09-05 08:00:00 9.6 4 Sudeste 13 Sur 0 900.5 -- 79
2020-09-05 07:00:00 9.2 0 Calma 9 Sudoeste 0 900.3 -- 78
2020-09-05 06:00:00 12.4 7 Sur 13 Sur 0 899.9 -- 67
2020-09-05 05:00:00 11.8 2 Nordeste 15 Sur 0 900.3 -- 68
2020-09-05 04:00:00 12.6 3 Este 7 Sudeste 0 900.5 -- 65
2020-09-05 03:00:00 13.1 0 Calma 8 Sudeste 0 900.8 -- 62
2020-09-05 02:00:00 15.5 0 Calma 8 Sudeste 0 901 -- 55
2020-09-05 01:00:00 15 2 Sudeste 14 Sur 0 901.2 -- 55
2020-09-05 00:00:00 16.5 7 Sudeste 17 Sur 0 901.5 -- 47
2020-09-04 23:00:00 15.9 6 Noroeste 11 Noroeste 0 901.2 -- 51
2020-09-04 22:00:00 19.7 6 Sudeste 16 Sur 0 900.8 -- 38
2020-09-04 21:00:00 23 0 Calma 14 Sudoeste 0 900.4 -- 30
2020-09-04 20:00:00 28.3 6 Oeste 18 Sudoeste 0 900.2 -- 20
2020-09-04 19:00:00 30.4 10 Oeste 26 Oeste 0 900.4 -- 15
2020-09-04 18:00:00 31.2 7 Oeste 24 Noroeste 0 900.5 -- 17
2020-09-04 17:00:00 31.3 11 Oeste 24 Sudoeste 0 900.9 -- 15
2020-09-04 16:00:00 30.9 11 Sudoeste 26 Sur 0 901.5 -- 15
2020-09-04 15:00:00 30.7 8 Sudeste 22 Sudoeste 0 902 -- 16
2020-09-04 14:00:00 29.1 6 Sudeste 17 Sur 0 902.5 -- 17
2020-09-04 13:00:00 28 6 Noroeste 14 Norte 0 903.1 -- 22
2020-09-04 12:00:00 27.1 5 Noroeste 13 Sudeste 0 903.4 -- 25
2020-09-04 11:00:00 23.9 5 Sur 10 Sudoeste 0 903.5 -- 33
2020-09-04 10:00:00 18 0 Calma 10 Sur 0 903.3 -- 49
2020-09-04 09:00:00 13.6 5 Sur 9 Sur 0 903 -- 57
2020-09-04 08:00:00 9.6 3 Sudeste 17 Sudeste 0 902.7 -- 69
2020-09-04 07:00:00 11.4 7 Sur 19 Sur 0 902.3 -- 62
2020-09-04 06:00:00 10.2 6 Sur 13 Sur 0 902.1 -- 66
2020-09-04 05:00:00 9.3 2 Sudeste 12 Sudeste 0 902.3 -- 67
2020-09-04 04:00:00 9.2 0 Calma 6 Este 0 902.5 -- 61
2020-09-04 03:00:00 10.4 4 Este 12 Sur 0 902.8 -- 57
2020-09-04 02:00:00 10.6 3 Sudeste 11 Sudeste 0 903 -- 54
2020-09-04 01:00:00 12.4 3 Sudeste 15 Sur 0 903.1 -- 44
2020-09-04 00:00:00 13.7 5 Sudeste 17 Sur 0 902.9 -- 37
2020-09-03 23:00:00 15.1 3 Sudeste 18 Sur 0 902.6 -- 33
2020-09-03 22:00:00 17.7 7 Sur 15 Sudeste 0 902 -- 27
2020-09-03 21:00:00 21.2 7 Sudoeste 16 Sudoeste 0 900.9 -- 22
2020-09-03 20:00:00 26.9 6 Sudoeste 16 Oeste 0 900.4 -- 15
2020-09-03 19:00:00 29.7 5 Sudoeste 20 Sudoeste 0 900.3 -- 13
2020-09-03 18:00:00 30.4 5 Oeste 15 Sudeste 0 900.1 -- 12
2020-09-03 17:00:00 29.9 7 Noroeste 26 Norte 0 900.2 -- 12
2020-09-03 16:00:00 29.4 10 Noroeste 22 Nordeste 0 900.4 -- 13
2020-09-03 15:00:00 28.4 8 Oeste 16 Noroeste 0 900.8 -- 14
2020-09-03 14:00:00 26.8 5 Norte 17 Noroeste 0 901.1 -- 18
2020-09-03 13:00:00 25.7 7 Norte 18 Norte 0 901.2 -- 20
2020-09-03 12:00:00 23.2 5 Sudeste 13 Sudeste 0 901.3 -- 24
2020-09-03 11:00:00 19.9 5 Nordeste 11 Este 0 901.4 -- 33
2020-09-03 10:00:00 13.6 3 Sudeste 11 Sudeste 0 900.9 -- 56
2020-09-03 09:00:00 7.3 6 Sudeste 17 Sur 0 900.8 -- 72
2020-09-03 08:00:00 4.3 9 Sur 18 Sur 0 900.4 -- 84
2020-09-03 07:00:00 4.5 12 Sur 20 Sur 0 900.1 -- 85
2020-09-03 06:00:00 4.6 6 Sur 15 Sur 0 900 -- 82
2020-09-03 05:00:00 5.5 4 Sudeste 13 Sur 0 899.9 -- 82
2020-09-03 04:00:00 6.3 4 Sudeste 14 Este 0 899.8 -- 79
2020-09-03 03:00:00 7.1 5 Sudeste 18 Sur 0 899.7 -- 78
2020-09-03 02:00:00 6.1 4 Sur 10 Sur 0 899.6 -- 84
2020-09-03 01:00:00 7.7 2 Noroeste 9 Sur 0 899.4 -- 77
2020-09-03 00:00:00 9.7 0 Calma 13 Sur 0 899.2 -- 70
2020-09-02 23:00:00 11.9 2 Sudeste 10 Sudoeste 0 898.9 -- 62
2020-09-02 22:00:00 15 4 Sudoeste 12 Sur 0 898.4 -- 54
2020-09-02 21:00:00 18.5 6 Oeste 18 Noroeste 0 897.5 -- 42
2020-09-02 20:00:00 23.4 9 Noroeste 32 Oeste 0 896.9 -- 30
2020-09-02 19:00:00 25.5 14 Noroeste 30 Oeste 0 896.4 -- 23
2020-09-02 18:00:00 26.1 12 Oeste 26 Oeste 0 896.1 -- 18
2020-09-02 17:00:00 26 12 Oeste 31 Noroeste 0 896.2 -- 17
2020-09-02 16:00:00 24.9 5 Sur 24 Norte 0 896.3 -- 20
2020-09-02 15:00:00 24.3 6 Sudoeste 20 Oeste 0 896.6 -- 23
2020-09-02 14:00:00 22.6 6 Nordeste 17 Nordeste 0 896.7 -- 26
2020-09-02 13:00:00 21.4 7 Este 17 Sudeste 0 897 -- 27
2020-09-02 12:00:00 20.1 5 Sudeste 19 Nordeste 0 897.2 -- 32
2020-09-02 11:00:00 16.9 4 Nordeste 13 Norte 0 897.2 -- 44
2020-09-02 10:00:00 13 2 Norte 6 Oeste 0 896.7 -- 63
2020-09-02 09:00:00 6.8 3 Oeste 57 Noroeste 0 896.8 -- 80
2020-09-02 08:00:00 3.3 2 Sur 4 Sur 0 896.4 -- 90
2020-09-02 07:00:00 3.6 0 Calma 5 Noroeste 0 896 -- 89
2020-09-02 06:00:00 3.9 0 Calma 5 Noroeste 0 895.6 -- 87
2020-09-02 05:00:00 4.4 0 Calma 5 Nordeste 0 895.5 -- 86
2020-09-02 04:00:00 5 3 Noroeste 10 Sur 0 895.2 -- 84
2020-09-02 03:00:00 6.4 0 Calma 12 Sur 0 895.2 -- 81
2020-09-02 02:00:00 8.6 4 Oeste 20 Sur 0 895.4 -- 72
2020-09-02 01:00:00 11.2 9 Sur 13 Sur 0 895.3 -- 63
2020-09-02 00:00:00 12.1 9 Sur 20 Sur 0 895 -- 63
2020-09-01 23:00:00 13.3 9 Sur 18 Sur 0 894.8 -- 58
2020-09-01 22:00:00 15.4 5 Sudeste 22 Este 0 894.5 -- 50
2020-09-01 21:00:00 16.9 15 Este 32 Este 0 893.7 -- 42
2020-09-01 20:00:00 20.1 15 Este 24 Este 0 893 -- 31
2020-09-01 19:00:00 23.3 5 Norte 17 Nordeste 0 892.5 -- 24
2020-09-01 18:00:00 23.3 13 Nordeste 27 Noroeste 0 892.5 -- 23
2020-09-01 17:00:00 24.2 9 Noroeste 29 Oeste 0 892.6 -- 21
2020-09-01 16:00:00 24 5 Norte 25 Oeste 0 892.9 -- 19
2020-09-01 15:00:00 23.4 6 Nordeste 25 Noroeste 0 893.5 -- 17
2020-09-01 14:00:00 22.9 8 Norte 26 Noroeste 0 893.8 -- 21
2020-09-01 13:00:00 21.4 8 Noroeste 17 Noroeste 0 894.3 -- 25
2020-09-01 12:00:00 20.1 4 Nordeste 11 Norte 0 894.6 -- 27
2020-09-01 11:00:00 16.4 3 Norte 8 Norte 0 895.1 -- 43
2020-09-01 10:00:00 12.1 4 Noroeste 17 Sur 0 895.1 -- 61
2020-09-01 09:00:00 9.6 12 Sur 19 Sur 0 895.1 -- 68
2020-09-01 08:00:00 7.8 3 Sudeste 12 Sur 0 895.2 -- 73
2020-09-01 07:00:00 7.8 10 Sur 20 Sur 0 895.2 -- 70
2020-09-01 06:00:00 7.6 6 Sudeste 16 Sur 0 895.2 -- 65
2020-09-01 05:00:00 7.1 6 Sur 18 Sur 0 896 -- 65
2020-09-01 04:00:00 7 5 Sur 19 Sur 0 895.9 -- 66
2020-09-01 03:00:00 7.5 7 Sur 15 Sur 0 896.3 -- 63
2020-09-01 02:00:00 7.5 13 Sur 17 Sur 0 896.7 -- 64
2020-09-01 01:00:00 8.7 3 Sudeste 10 Sudeste 0 896.5 -- 60
2020-09-01 00:00:00 8.4 2 Sudeste 4 Sudeste 0 896.8 -- 62
2020-08-31 23:00:00 10.9 0 Calma 7 Sudoeste 0 896.8 -- 54
2020-08-31 22:00:00 14 5 Sudoeste 9 Sudoeste 0 896.6 -- 40
2020-08-31 21:00:00 16.4 5 Oeste 12 Noroeste 0 896.3 -- 32
2020-08-31 20:00:00 18.9 7 Noroeste 16 Noroeste 0 896.3 -- 31
2020-08-31 19:00:00 20.1 8 Oeste 22 Oeste 0 896.4 -- 24
2020-08-31 18:00:00 22 10 Noroeste 27 Noroeste 0 896.5 -- 21
2020-08-31 17:00:00 22.6 11 Noroeste 34 Noroeste 0 896.7 -- 21
2020-08-31 16:00:00 22.3 12 Noroeste 27 Noroeste 0 897.1 -- 21
2020-08-31 15:00:00 21.4 13 Noroeste 27 Noroeste 0 897.5 -- 24
2020-08-31 14:00:00 19.7 9 Noroeste 25 Noroeste 0 897.9 -- 21
2020-08-31 13:00:00 18.7 10 Noroeste 24 Noroeste 0 898.4 -- 25
2020-08-31 12:00:00 16 5 Nordeste 13 Noroeste 0 898.5 -- 39
2020-08-31 11:00:00 13.4 6 Norte 11 Noroeste 0 898.8 -- 51
2020-08-31 10:00:00 8.5 3 Sudeste 13 Este 0 899 -- 69
2020-08-31 09:00:00 3.4 5 Sudeste 9 Sur 0 898.8 -- 83
2020-08-31 08:00:00 0.8 3 Sudeste 12 Sur 0 898.5 -- 91
2020-08-31 07:00:00 0.9 4 Sudeste 14 Sur 0 898.3 -- 92
2020-08-31 06:00:00 0.6 3 Este 6 Sur 0 898.3 -- 90
2020-08-31 05:00:00 0.8 2 Norte 4 Sudeste 0 898.4 -- 90
2020-08-31 04:00:00 1.3 2 Oeste 6 Este 0 898.6 -- 90
2020-08-31 03:00:00 2.7 2 Este 5 Oeste 0 898.5 -- 89
2020-08-31 02:00:00 3 3 Oeste 8 Sudeste 0 898.4 -- 86
2020-08-31 01:00:00 4.5 0 Calma 13 Sudeste 0 898.5 -- 83
2020-08-31 00:00:00 7.2 9 Sur 12 Sur 0 898 -- 74
2020-08-30 23:00:00 7.4 5 Sudoeste 12 Sur 0 897.9 -- 74
2020-08-30 22:00:00 8.6 9 Sur 12 Sur 0 897.2 -- 71
2020-08-30 21:00:00 10.8 6 Sudeste 24 Norte 0 896.6 -- 63
2020-08-30 20:00:00 13.2 12 Norte 27 Noroeste 0 896.4 -- 51
2020-08-30 19:00:00 14 15 Norte 35 Norte 0 896 -- 46
2020-08-30 18:00:00 15.3 15 Norte 33 Norte 0 895.6 -- 43
2020-08-30 17:00:00 16.5 11 Norte 29 Norte 0 895.2 -- 39
2020-08-30 16:00:00 14.8 10 Norte 33 Norte 0 895.4 -- 45
2020-08-30 15:00:00 14.3 17 Norte 32 Noroeste 0 895.5 -- 45
2020-08-30 14:00:00 15.8 14 Noroeste 38 Noroeste 0 895.4 -- 37
2020-08-30 13:00:00 15.5 15 Noroeste 39 Noroeste 0 895.3 -- 40
2020-08-30 12:00:00 13.8 18 Norte 37 Norte 0 895.2 -- 47
2020-08-30 11:00:00 12.3 17 Norte 34 Noroeste 0 895 -- 48
2020-08-30 10:00:00 10 13 Noroeste 23 Noroeste 0 894.5 -- 65
2020-08-30 09:00:00 7.2 10 Noroeste 24 Noroeste 0 894 -- 77
2020-08-30 08:00:00 6.2 11 Noroeste 28 Noroeste 0 893.4 -- 79
2020-08-30 07:00:00 6.9 13 Noroeste 29 Noroeste 0 893 -- 77
2020-08-30 06:00:00 7.1 16 Noroeste 28 Noroeste 0 892.8 -- 75
2020-08-30 05:00:00 6.9 11 Noroeste 27 Noroeste 0 892.9 -- 75
2020-08-30 04:00:00 7 10 Noroeste 21 Noroeste 0 892.6 -- 76
2020-08-30 03:00:00 7.8 10 Noroeste 24 Oeste 0 892.8 -- 74
2020-08-30 02:00:00 8.6 15 Oeste 26 Oeste 0 893.1 -- 71
2020-08-30 01:00:00 8.2 11 Oeste 27 Noroeste 0 892.8 -- 70
2020-08-30 00:00:00 8.5 12 Noroeste 33 Oeste 0 892.5 -- 67
2020-08-29 23:00:00 8.4 15 Oeste 35 Norte 0 891.8 -- 68
2020-08-29 22:00:00 9.2 15 Noroeste 34 Noroeste 0 891.4 -- 72
2020-08-29 21:00:00 10 14 Noroeste 34 Noroeste 0 890.8 -- 79
2020-08-29 20:00:00 10.6 14 Noroeste 32 Norte 0.2 890.6 -- 79
2020-08-29 19:00:00 10.8 19 Norte 51 Noroeste 2 890 -- 80
2020-08-29 18:00:00 13.7 16 Norte 37 Norte 0.4 889.2 -- 66
2020-08-29 17:00:00 13 15 Oeste 35 Noroeste 0.4 889 -- 71
2020-08-29 16:00:00 12.4 3 Norte 42 Noroeste 0.6 889.1 -- 77
2020-08-29 15:00:00 14.6 12 Norte 31 Oeste 0.4 888.8 -- 56
2020-08-29 14:00:00 14.9 15 Noroeste 35 Noroeste 0 889.1 -- 48
2020-08-29 13:00:00 14.5 16 Noroeste -- -- 0 889.2 -- 49
2020-08-29 12:00:00 15.6 -- -- -- -- 0 888.9 -- 42
2020-08-29 11:00:00 14.5 13 Norte 32 Norte 0 889 -- 46
2020-08-29 10:00:00 12.6 14 Noroeste 37 Norte 0 888.9 -- 54
2020-08-29 09:00:00 9.8 8 Noroeste 22 Noroeste 0 888.4 -- 69
2020-08-29 08:00:00 8.6 8 Noroeste 25 Noroeste 0 888.4 -- 72
2020-08-29 07:00:00 7.8 14 Noroeste 24 Noroeste 0 888.4 -- 75
2020-08-29 06:00:00 6.8 6 Noroeste 18 Noroeste 0 888.3 -- 79
2020-08-29 05:00:00 7.4 6 Sur 12 Sur 0 888.1 -- 76
2020-08-29 04:00:00 8.8 5 Sudeste 18 Sur 0 888.2 -- 72
2020-08-29 03:00:00 10.6 4 Sur 15 Sudoeste 0 888.5 -- 70
2020-08-29 02:00:00 11.3 5 Sudoeste 15 Sur 0 889 -- 70
2020-08-29 01:00:00 11.2 4 Sudoeste 10 Sur 0 889.1 -- 72
2020-08-29 00:00:00 11.6 3 Sur -- -- 0 888.8 -- 71
2020-08-28 23:00:00 12.6 8 Sur 15 Sudeste 0 888.4 -- 69
2020-08-28 22:00:00 13.8 6 Sur 18 Este 0 888 -- 65
2020-08-28 21:00:00 17.1 7 Norte 27 Noroeste 0 887.6 -- 50
2020-08-28 20:00:00 20.7 15 Noroeste -- -- 0 887.4 -- 44
2020-08-28 19:00:00 23.8 16 Noroeste 44 Oeste 0 887.3 -- 34
2020-08-28 18:00:00 25.1 18 Oeste 47 Noroeste 0 887.6 -- 24
2020-08-28 17:00:00 25.5 16 Oeste 46 Noroeste 0 888.1 -- 29
2020-08-28 16:00:00 25.2 22 Noroeste 42 Oeste 0 888.6 -- 31
2020-08-28 15:00:00 24.9 18 Oeste 41 Oeste 0 889.3 -- 34
2020-08-28 14:00:00 24.1 10 Oeste 28 Oeste 0 890.2 -- 45
2020-08-28 13:00:00 21.9 9 Oeste 22 Noroeste 0 891 -- 55
2020-08-28 12:00:00 19.4 10 Oeste 23 Oeste 0 891.6 -- 67
2020-08-28 11:00:00 17.3 14 Oeste 26 Oeste 0 892.1 -- 78
2020-08-28 10:00:00 18.4 4 Noroeste 8 Noroeste 0 891.8 -- 66
2020-08-28 09:00:00 13.8 0 Calma 13 Sur 0 892 -- 79
2020-08-28 08:00:00 12.6 2 Sudoeste 8 Oeste 0 892.2 -- 83
2020-08-28 07:00:00 13.4 2 Sur 6 Oeste 0 892.2 -- 76
2020-08-28 06:00:00 13.8 4 Sudoeste 10 Sur 0 892.7 -- 74
2020-08-28 05:00:00 15 0 Calma 16 Sur 0 893 -- 70
2020-08-28 04:00:00 14.5 13 Sur 17 Sur 0 893.5 -- 68
2020-08-28 03:00:00 13.8 3 Sur 14 Este 0 894.3 -- 71
2020-08-28 02:00:00 15.5 4 Sudeste 16 Sur 0 894.7 -- 63
2020-08-28 01:00:00 17.1 12 Sur 15 Sur 0 894.9 -- 55
2020-08-28 00:00:00 16.3 2 Norte 14 Sur 0 895.2 -- 59
2020-08-27 23:00:00 17.6 0 Calma 6 Sudeste 0 895.5 -- 52
2020-08-27 22:00:00 20.6 3 Oeste 8 Oeste 0 895.6 -- 41
2020-08-27 21:00:00 25.1 5 Sudoeste 12 Oeste 0 895.4 -- 27
2020-08-27 20:00:00 29.6 5 Oeste 27 Noroeste 0 895.5 -- 21
2020-08-27 19:00:00 31 9 Noroeste 33 Noroeste 0 895.9 -- 20
2020-08-27 18:00:00 31.5 10 Oeste 33 Noroeste 0 896.4 -- 21
2020-08-27 17:00:00 30.4 8 Oeste 37 Noroeste 0 896.8 -- 22
2020-08-27 16:00:00 29.3 14 Oeste 30 Noroeste 0 897.5 -- 25
2020-08-27 15:00:00 30.7 10 Oeste 40 Noroeste 0 898.1 -- 19
2020-08-27 14:00:00 30.4 10 Oeste 26 Noroeste 0 898.5 -- 27
2020-08-27 13:00:00 28.5 12 Norte 27 Oeste 0 899 -- 29
2020-08-27 12:00:00 28.5 10 Noroeste 22 Noroeste 0 899.2 -- 29
2020-08-27 11:00:00 25.1 6 Sur 10 Sur 0 899.3 -- 40
2020-08-27 10:00:00 20.2 3 Sur 9 Sudeste 0 899.4 -- 58
2020-08-27 09:00:00 14.2 10 Sur 15 Sur 0 899.6 -- 77
2020-08-27 08:00:00 12.2 9 Sur 15 Sur 0 899.5 -- 84
2020-08-27 07:00:00 11.5 4 Sudeste 14 Sur 0 899.4 -- 83
2020-08-27 06:00:00 12.6 9 Sur 18 Sur 0 899.4 -- 81
2020-08-27 05:00:00 12.9 8 Sur 17 Sur 0 899.6 -- 78
2020-08-27 04:00:00 13 0 Calma 8 Sur 0 899.9 -- 73
2020-08-27 03:00:00 14.6 4 Sudeste 14 Sur 0 900.1 -- 67
2020-08-27 02:00:00 14.8 2 Sudeste 8 Sudeste 0 900.3 -- 63
2020-08-27 01:00:00 16.1 4 Sudeste 17 Sur 0 900.6 -- 57
2020-08-27 00:00:00 16.6 7 Sur 13 Sur 0 900.5 -- 54
2020-08-26 23:00:00 18.2 5 Sudeste 14 Sur 0 900.2 -- 49
2020-08-26 22:00:00 20.7 2 Sur 12 Sur 0 899.7 -- 40
2020-08-26 21:00:00 25.8 3 Oeste 17 Noroeste 0 899 -- 27
2020-08-26 20:00:00 29.7 7 Noroeste 26 Noroeste 0 898.9 -- 22
2020-08-26 19:00:00 30.9 13 Norte 28 Oeste 0 898.9 -- 19
2020-08-26 18:00:00 32.9 10 Oeste 32 Noroeste 0 899 -- 14
2020-08-26 17:00:00 32.9 14 Oeste 28 Noroeste 0 899.1 -- 13
2020-08-26 16:00:00 32.2 13 Noroeste 37 Noroeste 0 899.3 -- 14
2020-08-26 15:00:00 32.3 7 Oeste 31 Noroeste 0 899.5 -- 15
2020-08-26 14:00:00 31.7 13 Oeste 31 Noroeste 0 899.6 -- 16
2020-08-26 13:00:00 30 9 Norte 19 Norte 0 899.9 -- 19
2020-08-26 12:00:00 28.7 6 Noroeste 13 Noroeste 0 900 -- 29
2020-08-26 11:00:00 25 2 Este 6 Nordeste 0 899.9 -- 39
2020-08-26 10:00:00 19.9 4 Norte 10 Sudeste 0 899.8 -- 51
2020-08-26 09:00:00 14.8 5 Sudeste 16 Sur 0 899.3 -- 64
2020-08-26 08:00:00 12 5 Sudeste 16 Sur 0 899.1 -- 71
2020-08-26 07:00:00 11.5 6 Sudeste 18 Sur 0 898.9 -- 70
2020-08-26 06:00:00 12.1 5 Sudeste 15 Sur 0 898.8 -- 66
2020-08-26 05:00:00 11.7 3 Sudeste 18 Este 0 898.8 -- 68
2020-08-26 04:00:00 13.4 6 Sudeste 17 Sur 0 898.7 -- 60
2020-08-26 03:00:00 14 3 Sudeste 19 Sur 0 898.8 -- 57
2020-08-26 02:00:00 15.3 12 Sur 20 Sur 0 898.8 -- 53
2020-08-26 01:00:00 14.9 3 Este 12 Sur 0 898.7 -- 55
2020-08-26 00:00:00 15.9 3 Este 16 Sur 0 898.4 -- 51